createdAt,value
2023-04-16T00:00:04.853Z,5.08
2023-04-16T00:02:32.785Z,5.11
2023-04-16T00:05:01.215Z,5.01
2023-04-16T00:07:29.192Z,4.98
2023-04-16T00:09:57.111Z,5.01
2023-04-16T00:12:25.250Z,5.08
2023-04-16T00:14:53.094Z,5.12
2023-04-16T00:17:22.337Z,5.16
2023-04-16T00:19:50.184Z,5.08
2023-04-16T00:22:18.154Z,5.15
2023-04-16T00:24:45.963Z,5.16
2023-04-16T00:27:13.848Z,5.20
2023-04-16T00:29:41.668Z,5.15
2023-04-16T00:32:09.757Z,4.97
2023-04-16T00:34:39.005Z,5.03
2023-04-16T00:37:08.549Z,5.08
2023-04-16T00:39:36.452Z,5.07
2023-04-16T00:42:04.419Z,5.10
2023-04-16T00:44:34.909Z,5.08
2023-04-16T00:47:03.880Z,5.15
2023-04-16T00:49:32.372Z,5.15
2023-04-16T00:52:02.554Z,5.15
2023-04-16T00:54:32.749Z,5.13
2023-04-16T00:57:01.630Z,5.14
2023-04-16T00:59:30.248Z,5.08
2023-04-16T01:01:58.241Z,5.14
2023-04-16T01:04:26.513Z,5.18
2023-04-16T01:06:54.816Z,5.21
2023-04-16T01:09:24.050Z,5.14
2023-04-16T01:11:51.905Z,5.16
2023-04-16T01:14:19.759Z,5.17
2023-04-16T01:16:47.614Z,5.11
2023-04-16T01:19:15.505Z,5.16
2023-04-16T01:21:44.764Z,5.16
2023-04-16T01:24:12.599Z,5.20
2023-04-16T01:26:40.450Z,5.25
2023-04-16T01:29:08.578Z,5.23
2023-04-16T01:31:36.727Z,5.24
2023-04-16T01:34:04.663Z,5.21
2023-04-16T01:36:32.554Z,5.25
2023-04-16T01:39:01.761Z,5.24
2023-04-16T01:41:29.588Z,5.24
2023-04-16T01:43:57.424Z,5.31
2023-04-16T01:46:29.341Z,5.32
2023-04-16T01:48:57.965Z,5.31
2023-04-16T01:51:25.959Z,5.40
2023-04-16T01:53:53.873Z,5.40
2023-04-16T01:56:23.138Z,5.38
2023-04-16T01:58:51.065Z,5.40
2023-04-16T02:01:19.285Z,5.42
2023-04-16T02:03:47.888Z,5.42
2023-04-16T02:06:15.936Z,5.47
2023-04-16T02:08:43.833Z,5.45
2023-04-16T02:11:11.745Z,5.41
2023-04-16T02:13:40.981Z,5.39
2023-04-16T02:16:08.940Z,5.43
2023-04-16T02:18:36.830Z,5.43
2023-04-16T02:21:06.472Z,5.46
2023-04-16T02:23:34.569Z,5.53
2023-04-16T02:26:04.489Z,5.51
2023-04-16T02:28:32.337Z,5.56
2023-04-16T02:31:01.580Z,5.50
2023-04-16T02:33:33.767Z,5.51
2023-04-16T02:36:01.673Z,5.54
2023-04-16T02:38:29.664Z,5.54
2023-04-16T02:40:57.474Z,5.60
2023-04-16T02:43:25.340Z,5.59
2023-04-16T02:45:53.213Z,5.64
2023-04-16T02:48:22.636Z,5.69
2023-04-16T02:50:50.440Z,5.66
2023-04-16T02:53:18.565Z,5.71
2023-04-16T02:55:52.515Z,5.72
2023-04-16T02:58:20.529Z,5.73
2023-04-16T03:00:48.890Z,5.70
2023-04-16T03:03:20.504Z,5.76
2023-04-16T03:05:49.885Z,5.68
2023-04-16T03:08:17.751Z,5.71
2023-04-16T03:10:45.659Z,5.72
2023-04-16T03:13:16.506Z,5.73
2023-04-16T03:15:49.886Z,5.76
2023-04-16T03:18:17.871Z,5.75
2023-04-16T03:20:45.888Z,5.74
2023-04-16T03:23:15.128Z,5.77
2023-04-16T03:25:46.547Z,5.77
2023-04-16T03:28:14.500Z,5.78
2023-04-16T03:30:42.403Z,5.84
2023-04-16T03:33:10.285Z,5.85
2023-04-16T03:35:38.169Z,5.79
2023-04-16T03:38:06.006Z,5.82
2023-04-16T03:40:37.716Z,5.87
2023-04-16T03:43:05.597Z,5.87
2023-04-16T03:45:33.454Z,5.79
2023-04-16T03:48:01.278Z,5.80
2023-04-16T03:50:29.134Z,5.80
2023-04-16T03:52:57.013Z,5.77
2023-04-16T03:55:27.694Z,5.85
2023-04-16T03:57:57.426Z,5.90
2023-04-16T04:00:25.377Z,5.86
2023-04-16T04:02:53.385Z,5.80
2023-04-16T04:05:21.362Z,5.83
2023-04-16T04:07:49.260Z,5.76
2023-04-16T04:10:17.293Z,5.78
2023-04-16T04:12:45.455Z,5.82
2023-04-16T04:15:14.964Z,5.85
2023-04-16T04:17:42.863Z,5.93
2023-04-16T04:20:11.919Z,6.01
2023-04-16T04:22:39.788Z,5.92
2023-04-16T04:25:08.565Z,5.95
2023-04-16T04:27:36.440Z,5.89
2023-04-16T04:30:04.895Z,5.77
2023-04-16T04:32:34.147Z,5.86
2023-04-16T04:35:03.662Z,5.97
2023-04-16T04:37:31.490Z,6.00
2023-04-16T04:39:59.384Z,6.04
2023-04-16T04:42:27.314Z,6.12
2023-04-16T04:44:55.169Z,6.19
2023-04-16T04:47:23.055Z,6.24
2023-04-16T04:49:52.315Z,6.27
2023-04-16T04:52:20.996Z,6.20
2023-04-16T04:54:48.848Z,6.26
2023-04-16T04:57:16.680Z,6.22
2023-04-16T04:59:44.767Z,6.19
2023-04-16T05:02:12.654Z,6.18
2023-04-16T05:04:40.951Z,6.23
2023-04-16T05:07:10.234Z,6.24
2023-04-16T05:09:38.080Z,6.19
2023-04-16T05:12:06.167Z,6.27
2023-04-16T05:14:34.000Z,6.38
2023-04-16T05:17:02.073Z,6.42
2023-04-16T05:19:29.986Z,6.40
2023-04-16T05:21:57.864Z,6.43
2023-04-16T05:24:27.176Z,6.44
2023-04-16T05:26:55.040Z,6.32
2023-04-16T05:29:22.887Z,6.42
2023-04-16T05:31:50.884Z,6.34
2023-04-16T05:34:18.769Z,6.48
2023-04-16T05:36:46.936Z,6.41
2023-04-16T05:39:14.822Z,6.40
2023-04-16T05:41:44.021Z,6.49
2023-04-16T05:44:11.917Z,6.43
2023-04-16T05:46:39.801Z,6.51
2023-04-16T05:49:07.946Z,6.53
2023-04-16T05:51:36.621Z,6.50
2023-04-16T05:54:04.602Z,6.51
2023-04-16T05:56:32.476Z,6.47
2023-04-16T05:59:01.701Z,6.48
2023-04-16T06:01:29.612Z,6.50
2023-04-16T06:03:57.536Z,6.50
2023-04-16T06:06:27.385Z,6.54
2023-04-16T06:08:55.267Z,6.51
2023-04-16T06:11:23.262Z,6.54
2023-04-16T06:13:51.116Z,6.50
2023-04-16T06:16:20.325Z,6.59
2023-04-16T06:18:48.335Z,6.61
2023-04-16T06:21:17.165Z,6.64
2023-04-16T06:23:45.079Z,6.64
2023-04-16T06:26:16.135Z,6.71
2023-04-16T06:28:43.957Z,6.61
2023-04-16T06:31:11.948Z,6.67
2023-04-16T06:33:41.221Z,6.72
2023-04-16T06:36:09.139Z,6.73
2023-04-16T06:38:37.843Z,6.79
2023-04-16T06:41:05.951Z,6.85
2023-04-16T06:43:34.524Z,6.88
2023-04-16T06:46:02.385Z,7.00
2023-04-16T06:48:30.306Z,7.03
2023-04-16T06:50:59.743Z,7.18
2023-04-16T06:53:30.742Z,7.20
2023-04-16T06:56:03.318Z,7.29
2023-04-16T06:58:31.171Z,7.37
2023-04-16T07:00:59.208Z,7.37
2023-04-16T07:03:27.700Z,7.50
2023-04-16T07:05:55.706Z,7.50
2023-04-16T07:08:25.521Z,7.52
2023-04-16T07:10:53.864Z,7.39
2023-04-16T07:13:22.167Z,7.35
2023-04-16T07:15:52.952Z,7.34
2023-04-16T07:18:21.459Z,7.41
2023-04-16T07:20:49.381Z,7.39
2023-04-16T07:23:17.261Z,7.41
2023-04-16T07:25:46.530Z,7.45
2023-04-16T07:28:16.632Z,7.47
2023-04-16T07:30:45.720Z,7.40
2023-04-16T07:33:13.622Z,7.68
2023-04-16T07:35:41.462Z,7.58
2023-04-16T07:38:09.429Z,7.69
2023-04-16T07:40:38.100Z,7.60
2023-04-16T07:43:07.862Z,7.74
2023-04-16T07:45:35.822Z,7.65
2023-04-16T07:48:03.748Z,7.53
2023-04-16T07:50:31.755Z,7.53
2023-04-16T07:52:59.757Z,7.63
2023-04-16T07:55:27.646Z,7.67
2023-04-16T07:57:56.291Z,7.83
2023-04-16T08:00:26.400Z,7.77
2023-04-16T08:02:54.480Z,7.85
2023-04-16T08:05:22.645Z,7.78
2023-04-16T08:07:50.639Z,7.96
2023-04-16T08:10:18.537Z,8.08
2023-04-16T08:12:46.518Z,8.21
2023-04-16T08:15:14.439Z,8.06
2023-04-16T08:17:43.704Z,8.08
2023-04-16T08:20:15.764Z,8.17
2023-04-16T08:22:46.525Z,8.01
2023-04-16T08:25:14.427Z,7.86
2023-04-16T08:27:42.524Z,7.86
2023-04-16T08:30:10.644Z,7.89
2023-04-16T08:32:38.651Z,7.79
2023-04-16T08:35:08.569Z,7.83
2023-04-16T08:37:36.504Z,7.91
2023-04-16T08:40:05.050Z,7.93
2023-04-16T08:42:37.063Z,7.93
2023-04-16T08:45:09.546Z,7.91
2023-04-16T08:47:37.999Z,7.80
2023-04-16T08:50:09.944Z,7.76
2023-04-16T08:52:43.461Z,7.74
2023-04-16T08:55:15.136Z,7.73
2023-04-16T08:57:49.500Z,7.72
2023-04-16T09:00:18.425Z,7.79
2023-04-16T09:02:46.682Z,7.90
2023-04-16T09:05:19.003Z,7.87
2023-04-16T09:07:48.383Z,7.85
2023-04-16T09:10:16.939Z,7.91
2023-04-16T09:12:45.552Z,7.96
2023-04-16T09:15:14.863Z,8.02
2023-04-16T09:17:42.850Z,8.10
2023-04-16T09:20:12.517Z,8.25
2023-04-16T09:22:41.808Z,8.37
2023-04-16T09:25:11.054Z,8.41
2023-04-16T09:27:39.267Z,8.38
2023-04-16T09:30:22.097Z,8.53
2023-04-16T09:32:50.493Z,8.49
2023-04-16T09:35:19.800Z,8.50
2023-04-16T09:37:58.134Z,8.72
2023-04-16T09:40:27.368Z,8.81
2023-04-16T09:42:58.821Z,8.88
2023-04-16T09:45:26.736Z,8.72
2023-04-16T09:48:04.250Z,8.58
2023-04-16T09:50:32.284Z,8.79
2023-04-16T09:53:04.550Z,8.77
2023-04-16T09:55:33.675Z,8.82
2023-04-16T09:58:02.417Z,8.80
2023-04-16T10:00:31.867Z,8.89
2023-04-16T10:03:06.743Z,8.89
2023-04-16T10:05:34.928Z,8.87
2023-04-16T10:08:04.234Z,8.86
2023-04-16T10:10:33.657Z,8.67
2023-04-16T10:13:02.640Z,8.70
2023-04-16T10:15:31.406Z,8.70
2023-04-16T10:18:00.325Z,8.73
2023-04-16T10:20:28.913Z,8.84
2023-04-16T10:22:58.686Z,8.84
2023-04-16T10:25:29.975Z,8.96
2023-04-16T10:27:59.517Z,8.83
2023-04-16T10:30:28.849Z,8.66
2023-04-16T10:33:00.201Z,8.53
2023-04-16T10:35:28.452Z,8.25
2023-04-16T10:37:57.899Z,8.28
2023-04-16T10:40:29.491Z,8.19
2023-04-16T10:42:59.135Z,8.22
2023-04-16T10:45:30.760Z,8.24
2023-04-16T10:47:58.924Z,8.17
2023-04-16T10:50:36.001Z,8.19
2023-04-16T10:53:25.713Z,8.19
2023-04-16T10:56:15.512Z,8.08
2023-04-16T10:58:43.558Z,8.07
2023-04-16T11:01:16.991Z,8.07
2023-04-16T11:03:48.128Z,8.09
2023-04-16T11:06:18.120Z,8.11
2023-04-16T11:08:54.654Z,8.22
2023-04-16T11:11:24.838Z,8.14
2023-04-16T11:13:57.492Z,8.19
2023-04-16T11:16:27.637Z,8.38
2023-04-16T11:18:57.096Z,8.51
2023-04-16T11:21:25.655Z,8.45
2023-04-16T11:23:54.824Z,8.42
2023-04-16T11:26:27.114Z,8.51
2023-04-16T11:28:56.667Z,8.59
2023-04-16T11:31:27.250Z,8.64
2023-04-16T11:33:57.821Z,8.62
2023-04-16T11:36:27.728Z,8.55
2023-04-16T11:39:04.191Z,8.54
2023-04-16T11:41:33.516Z,8.65
2023-04-16T11:44:01.420Z,8.75
2023-04-16T11:46:40.728Z,8.67
2023-04-16T11:49:09.058Z,8.68
2023-04-16T11:51:41.504Z,8.73
2023-04-16T11:54:12.030Z,8.68
2023-04-16T11:56:48.669Z,8.76
2023-04-16T11:59:18.183Z,8.70
2023-04-16T12:01:49.820Z,8.99
2023-04-16T12:04:20.218Z,9.07
2023-04-16T12:07:08.452Z,9.03
2023-04-16T12:09:40.135Z,9.17
2023-04-16T12:12:27.596Z,9.16
2023-04-16T12:14:57.031Z,9.25
2023-04-16T12:17:25.569Z,9.32
2023-04-16T12:19:57.786Z,9.26
2023-04-16T12:22:30.717Z,9.18
2023-04-16T12:25:04.159Z,9.22
2023-04-16T12:27:53.391Z,8.98
2023-04-16T12:30:25.214Z,8.76
2023-04-16T12:32:57.903Z,8.73
2023-04-16T12:35:36.960Z,8.71
2023-04-16T12:38:17.048Z,8.84
2023-04-16T12:40:45.097Z,8.84
2023-04-16T12:43:14.699Z,9.00
2023-04-16T12:45:42.909Z,9.19
2023-04-16T12:48:10.992Z,9.24
2023-04-16T12:50:40.981Z,9.25
2023-04-16T12:53:12.882Z,9.38
2023-04-16T12:55:46.888Z,9.38
2023-04-16T12:58:25.674Z,9.66
2023-04-16T13:00:54.069Z,9.98
2023-04-16T13:03:24.572Z,9.97
2023-04-16T13:05:52.978Z,10.26
2023-04-16T13:08:21.871Z,10.57
2023-04-16T13:10:50.091Z,10.48
2023-04-16T13:13:34.485Z,10.37
2023-04-16T13:16:04.207Z,10.38
2023-04-16T13:18:32.214Z,10.20
2023-04-16T13:21:00.776Z,10.07
2023-04-16T13:23:28.876Z,9.98
2023-04-16T13:25:59.165Z,9.92
2023-04-16T13:28:27.258Z,10.00
2023-04-16T13:30:56.888Z,10.16
2023-04-16T13:33:25.126Z,10.07
2023-04-16T13:35:53.359Z,10.08
2023-04-16T17:39:15.818Z,8.98
2023-04-16T17:41:43.861Z,9.00
2023-04-16T17:44:12.230Z,8.98
2023-04-16T17:46:40.250Z,8.89
2023-04-16T17:49:08.400Z,8.84
2023-04-16T17:51:36.401Z,8.79
2023-04-16T17:54:04.479Z,8.79
2023-04-16T17:56:33.975Z,8.83
2023-04-16T17:59:02.223Z,8.86
2023-04-16T18:01:30.223Z,8.83
2023-04-16T18:03:58.421Z,8.76
2023-04-16T18:06:27.593Z,8.88
2023-04-16T18:08:55.526Z,8.83
2023-04-16T18:11:23.535Z,8.78
2023-04-16T18:13:54.028Z,8.84
2023-04-16T18:16:22.446Z,8.89
2023-04-16T18:18:50.919Z,8.91
2023-04-16T18:21:18.868Z,9.14
2023-04-16T18:23:48.177Z,8.84
2023-04-16T18:26:20.439Z,8.96
2023-04-16T18:28:50.362Z,8.88
2023-04-16T18:31:21.370Z,8.81
2023-04-16T18:33:57.417Z,8.83
2023-04-16T18:36:27.438Z,8.71
2023-04-16T18:41:27.210Z,8.71
2023-04-16T18:43:55.385Z,8.63
2023-04-16T18:46:25.328Z,8.65
2023-04-16T18:48:53.594Z,8.66
2023-04-16T18:51:21.666Z,8.69
2023-04-16T18:53:49.645Z,8.64
2023-04-16T18:56:17.668Z,8.65
2023-04-16T18:58:45.726Z,8.54
2023-04-16T19:01:14.155Z,8.64
2023-04-16T19:03:46.482Z,8.60
2023-04-16T19:06:16.917Z,8.60
2023-04-16T19:08:44.984Z,8.61
2023-04-16T19:11:13.030Z,8.62
2023-04-16T19:14:34.397Z,8.55
2023-04-16T19:16:36.214Z,8.47
2023-04-16T19:19:05.568Z,8.60
2023-04-16T19:21:33.699Z,8.51
2023-04-16T19:24:01.664Z,8.52
2023-04-16T19:26:29.685Z,8.53
2023-04-16T19:28:57.673Z,8.54
2023-04-16T19:31:26.447Z,8.57
2023-04-16T19:33:54.384Z,9.07
2023-04-16T19:36:23.722Z,8.58
2023-04-16T19:38:51.716Z,8.53
2023-04-16T19:41:19.787Z,8.41
2023-04-16T19:43:47.795Z,8.39
2023-04-16T19:46:16.758Z,8.34
2023-04-16T19:48:44.754Z,8.34
2023-04-16T19:51:12.657Z,8.35
2023-04-16T19:53:42.230Z,8.43
2023-04-16T19:56:10.134Z,8.42
2023-04-16T19:58:39.252Z,8.51
2023-04-16T20:01:09.872Z,8.42
2023-04-16T20:03:38.127Z,8.36
2023-04-16T20:06:07.628Z,8.49
2023-04-16T20:08:37.549Z,8.38
2023-04-16T20:11:08.562Z,8.38
2023-04-16T20:13:37.586Z,8.42
2023-04-16T20:16:05.777Z,8.35
2023-04-16T20:18:41.393Z,8.37
2023-04-16T20:21:09.482Z,8.38
2023-04-16T20:23:37.441Z,8.41
2023-04-16T20:26:07.404Z,8.39
2023-04-16T20:28:35.318Z,8.48
2023-04-16T20:31:03.217Z,8.66
2023-04-16T20:33:31.092Z,8.39
2023-04-16T20:35:58.997Z,8.26
2023-04-16T20:38:29.650Z,8.29
2023-04-16T20:41:06.577Z,8.20
2023-04-16T20:43:38.632Z,8.30
2023-04-16T20:46:06.752Z,8.21
2023-04-16T20:48:35.337Z,8.23
2023-04-16T20:51:05.415Z,8.25
2023-04-16T20:53:34.416Z,8.11
2023-04-16T20:56:02.321Z,8.13
2023-04-16T20:58:30.726Z,8.10
2023-04-16T21:01:00.020Z,8.10
2023-04-16T21:03:28.114Z,8.11
2023-04-16T21:05:56.838Z,8.13
2023-04-16T21:08:25.649Z,8.09
2023-04-16T21:10:53.586Z,8.09
2023-04-16T21:13:21.865Z,7.96
2023-04-16T21:15:49.829Z,8.12
2023-04-16T21:18:19.334Z,8.19
2023-04-16T21:20:47.257Z,8.17
2023-04-16T21:23:15.178Z,8.20
2023-04-16T21:25:43.053Z,8.25
2023-04-16T21:28:10.952Z,8.08
2023-04-16T21:30:39.302Z,8.04
2023-04-16T21:33:07.658Z,7.98
2023-04-16T21:35:36.924Z,8.10
2023-04-16T21:38:04.852Z,8.05
2023-04-16T21:40:32.777Z,7.93
2023-04-16T21:43:01.037Z,8.08
2023-04-16T21:45:30.505Z,8.10
2023-04-16T21:47:58.704Z,8.23
2023-04-16T21:50:26.707Z,8.23
2023-04-16T21:52:56.002Z,8.28
2023-04-16T21:55:24.443Z,8.22
2023-04-16T21:57:52.338Z,8.46
2023-04-16T22:00:21.210Z,8.31
2023-04-16T22:02:49.360Z,8.21
2023-04-16T22:05:17.661Z,8.10
2023-04-16T22:07:46.044Z,8.16
2023-04-16T22:10:15.935Z,8.16
2023-04-16T22:12:44.914Z,8.10
2023-04-16T22:15:14.629Z,8.51
2023-04-16T22:17:42.796Z,8.06
2023-04-16T22:20:12.749Z,7.90
2023-04-16T22:22:41.072Z,7.88
2023-04-16T22:25:09.788Z,7.84
2023-04-16T22:27:39.335Z,7.73
2023-04-16T22:30:09.282Z,7.74
2023-04-16T22:32:37.371Z,7.88
2023-04-16T22:35:06.069Z,7.78
2023-04-16T22:37:34.725Z,7.81
2023-04-16T22:40:02.843Z,7.77
2023-04-16T22:42:32.910Z,7.87
2023-04-16T22:45:02.283Z,7.87
2023-04-16T22:47:30.364Z,7.81
2023-04-16T22:49:59.140Z,7.88
2023-04-16T22:52:27.421Z,7.86
2023-04-16T22:54:55.542Z,7.93
2023-04-16T22:57:25.646Z,7.93
2023-04-16T22:59:54.146Z,7.93
2023-04-16T23:02:23.638Z,7.93
2023-04-16T23:04:51.755Z,7.86
2023-04-16T23:07:19.779Z,7.83
2023-04-16T23:09:47.782Z,8.79
2023-04-16T23:12:15.789Z,7.92
2023-04-16T23:14:46.041Z,7.86
2023-04-16T23:17:14.780Z,7.73
2023-04-16T23:19:44.178Z,7.81
2023-04-16T23:22:12.334Z,7.84
2023-04-16T23:24:40.332Z,7.75
2023-04-16T23:27:08.445Z,7.73
2023-04-16T23:29:36.451Z,7.74
2023-04-16T23:32:04.554Z,7.82
2023-04-16T23:34:32.495Z,7.87
2023-04-16T23:37:01.888Z,7.82
2023-04-16T23:39:29.858Z,7.81
2023-04-16T23:41:58.225Z,7.87
2023-04-16T23:44:26.269Z,7.81
2023-04-16T23:46:54.261Z,7.86
2023-04-16T23:49:22.211Z,7.86
2023-04-16T23:51:50.046Z,7.87
2023-04-16T23:54:19.433Z,7.77
2023-04-16T23:56:47.295Z,7.94
2023-04-16T23:59:15.437Z,7.80
